Terminal Aerodrome Forecast
Issued by NWS Mobile, AL

Home | Current Version | Previous Version | Text Only | Print | Product List | Glossary On
Versions: 1 2 3 4 5 6 7 8 9 10 11 12 13 14 15 16 17 18 19 20 21 22 23 24 25 26 27 28 29 30 31 32 33 34 35 36 37 38 39 40 41 42 43 44
096
FTUS44 KMOB 230520
TAFMOB
TAF
KMOB 230520Z 2306/2406 17014G26KT P6SM -RA VCSH BKN015 BKN022
      OVC040
     FM231500 15009G16KT P6SM -RA VCSH BKN015 OVC030=

USA.gov is the U.S. government's official web portal to all federal, state and local government web resources and services.